Time;durP1;ratioP1;P1;durP2;ratioP2;P2;SDS_P1;SDS_P2;PMS_P1;PMS_P2;Temp;Humidity;BMP_temperature;BMP_pressure;BME280_temperature;BME280_humidity;BME280_pressure;Samples;Min_cycle;Max_cycle;Signal;HPM_P1;HPM_P2
2022/11/19 00:01:42;;;;;;;;;;;;;;;;;;5033651;28;20395;-30
2022/11/19 00:04:07;;;;;;;;;;;;;;;;;;5040797;28;19920;-29
2022/11/19 00:06:32;;;;;;;;;;;;;;;;;;5038962;28;19917;-30
2022/11/19 00:08:57;;;;;;;;;;;;;;;;;;5032831;28;19925;-30
2022/11/19 00:14:07;;;;;;;;;;;;;;;;;;5035483;28;19991;-29
2022/11/19 00:16:32;;;;;;;;;;;;;;;;;;5035828;28;19990;-29
2022/11/19 00:18:57;;;;;;;;;;;;;;;;;;5033446;28;19917;-30
2022/11/19 00:21:22;;;;;;;;;;;;;;;;;;5032048;28;20432;-30
2022/11/19 00:23:47;;;;;;;;;;;;;;;;;;5038156;28;20168;-30
2022/11/19 00:26:13;;;;;;;;;;;;;;;;;;5033671;28;20336;-30
2022/11/19 00:28:38;;;;;;;;;;;;;;;;;;5037324;28;19917;-29
2022/11/19 00:31:03;;;;;;;;;;;;;;;;;;5029625;28;19917;-30
2022/11/19 00:33:28;;;;;;;;;;;;;;;;;;5034644;28;20437;-31
2022/11/19 00:35:53;;;;;;;;;;;;;;;;;;5032630;28;19921;-29
2022/11/19 00:38:19;;;;;;;;;;;;;;;;;;5030883;28;20574;-30
2022/11/19 00:40:44;;;;;;;;;;;;;;;;;;5034691;28;19973;-30
2022/11/19 00:45:53;;;;;;;;;;;;;;;;;;5041546;28;20306;-30
2022/11/19 00:48:18;;;;;;;;;;;;;;;;;;5030745;28;19917;-30
2022/11/19 00:50:43;;;;;;;;;;;;;;;;;;5037343;28;19947;-30
2022/11/19 00:53:08;;;;;;;;;;;;;;;;;;5032471;28;19964;-29
2022/11/19 00:55:33;;;;;;;;;;;;;;;;;;5036310;28;20000;-31
2022/11/19 00:57:59;;;;;;;;;;;;;;;;;;5035567;28;20387;-30
2022/11/19 01:00:24;;;;;;;;;;;;;;;;;;5034657;28;19917;-30
2022/11/19 01:02:49;;;;;;;;;;;;;;;;;;5041704;28;19925;-30
2022/11/19 01:05:14;;;;;;;;;;;;;;;;;;5040666;28;20348;-29
2022/11/19 01:07:39;;;;;;;;;;;;;;;;;;5033993;28;19963;-30
2022/11/19 01:10:05;;;;;;;;;;;;;;;;;;5040697;28;19943;-29
2022/11/19 01:13:33;;;;;;;;;;;;;;;;;;5034932;28;19924;-30
2022/11/19 01:15:15;;;;;;;;;;;;;;;;;;5038775;28;19928;-29
2022/11/19 01:17:40;;;;;;;;;;;;;;;;;;5034770;28;19917;-28
2022/11/19 01:20:05;;;;;;;;;;;;;;;;;;5039025;28;19940;-29
2022/11/19 01:22:30;;;;;;;;;;;;;;;;;;5042182;28;19963;-30
2022/11/19 01:24:55;;;;;;;;;;;;;;;;;;5039579;28;19976;-28
2022/11/19 01:27:21;;;;;;;;;;;;;;;;;;5035399;28;20361;-29
2022/11/19 01:29:46;;;;;;;;;;;;;;;;;;5029442;28;20446;-29
2022/11/19 01:32:12;;;;;;;;;;;;;;;;;;5043710;28;19946;-29
2022/11/19 01:34:37;;;;;;;;;;;;;;;;;;5042474;28;19944;-30
2022/11/19 01:37:02;;;;;;;;;;;;;;;;;;5039765;28;20016;-29
2022/11/19 01:39:27;;;;;;;;;;;;;;;;;;5034617;28;19925;-30
2022/11/19 01:41:52;;;;;;;;;;;;;;;;;;5037720;28;19925;-29
2022/11/19 01:44:17;;;;;;;;;;;;;;;;;;5043366;28;19982;-29
2022/11/19 01:46:43;;;;;;;;;;;;;;;;;;5037323;28;19925;-29
2022/11/19 01:49:08;;;;;;;;;;;;;;;;;;5041530;28;20019;-29
2022/11/19 01:51:33;;;;;;;;;;;;;;;;;;5028488;28;19917;-30
2022/11/19 01:53:58;;;;;;;;;;;;;;;;;;5042077;28;19963;-29
2022/11/19 01:56:23;;;;;;;;;;;;;;;;;;5045045;28;20390;-30
2022/11/19 01:58:49;;;;;;;;;;;;;;;;;;5041424;28;19921;-29
2022/11/19 02:01:14;;;;;;;;;;;;;;;;;;5038404;28;19917;-29
2022/11/19 02:03:39;;;;;;;;;;;;;;;;;;5033005;28;19917;-30
2022/11/19 02:06:04;;;;;;;;;;;;;;;;;;5033513;28;19917;-29
2022/11/19 02:08:29;;;;;;;;;;;;;;;;;;5032977;28;19971;-29
2022/11/19 02:10:54;;;;;;;;;;;;;;;;;;5040279;28;21401;-29
2022/11/19 02:13:20;;;;;;;;;;;;;;;;;;5031429;28;19960;-29
2022/11/19 02:15:45;;;;;;;;;;;;;;;;;;5032977;28;19924;-30
2022/11/19 02:18:10;;;;;;;;;;;;;;;;;;5043484;28;20038;-30
2022/11/19 02:20:35;;;;;;;;;;;;;;;;;;5034705;28;20290;-30
2022/11/19 02:23:00;;;;;;;;;;;;;;;;;;5043052;28;19970;-30
2022/11/19 02:25:26;;;;;;;;;;;;;;;;;;5037585;28;20158;-29
2022/11/19 02:27:51;;;;;;;;;;;;;;;;;;5035823;28;20203;-28
2022/11/19 02:30:16;;;;;;;;;;;;;;;;;;5041820;28;19917;-28
2022/11/19 02:32:41;;;;;;;;;;;;;;;;;;5032034;28;19944;-28
2022/11/19 02:35:06;;;;;;;;;;;;;;;;;;5042508;28;19923;-28
2022/11/19 02:37:32;;;;;;;;;;;;;;;;;;5031307;28;19925;-28
2022/11/19 02:39:57;;;;;;;;;;;;;;;;;;5041538;28;20015;-28
2022/11/19 02:42:22;;;;;;;;;;;;;;;;;;5039062;28;19917;-28
2022/11/19 02:45:01;;;;;;;;;;;;;;;;;;5037243;28;20002;-28
2022/11/19 02:47:26;;;;;;;;;;;;;;;;;;5039425;28;20019;-28
2022/11/19 02:49:51;;;;;;;;;;;;;;;;;;5030161;28;20074;-28
2022/11/19 02:52:16;;;;;;;;;;;;;;;;;;5035684;28;19921;-28
2022/11/19 02:54:41;;;;;;;;;;;;;;;;;;5033331;28;21263;-28
2022/11/19 02:57:06;;;;;;;;;;;;;;;;;;5038411;28;20501;-28
2022/11/19 03:04:59;;;;;;;;;;;;;;;;;;5044165;28;20012;-28
2022/11/19 03:07:24;;;;;;;;;;;;;;;;;;5043140;28;20011;-28
2022/11/19 03:09:49;;;;;;;;;;;;;;;;;;5035215;28;21480;-28
2022/11/19 03:12:15;;;;;;;;;;;;;;;;;;5030409;28;19955;-28
2022/11/19 03:17:24;;;;;;;;;;;;;;;;;;5038874;28;19945;-28
2022/11/19 03:19:49;;;;;;;;;;;;;;;;;;5040073;28;20320;-28
2022/11/19 03:22:20;;;;;;;;;;;;;;;-0.17;nan;101411.53;5040113;28;20385;-29
2022/11/19 03:24:49;;;;;;;;;;;;;;;-0.09;nan;101411.53;5028586;28;19921;-29
2022/11/19 03:27:21;;;;;;;;;;;;;;;-0.07;nan;101415.66;5035321;28;19920;-29
2022/11/19 03:29:49;;;;;;;;;;;;;;;-0.06;nan;101413.84;5035148;28;19936;-29
2022/11/19 03:32:20;;;;;;;;;;;;;;;-0.05;nan;101418.13;5042546;28;20424;-29
2022/11/19 03:34:47;;;;;;;;;;;;;;;-0.06;nan;101408.56;5040106;28;20375;-29
2022/11/19 03:37:15;;;;;;;;;;;;;;;-0.06;nan;101405.94;5031963;28;20011;-29
2022/11/19 03:39:41;;;;;;;;;;;;;;;-0.06;nan;101408.56;5032863;28;19917;-29
2022/11/19 03:42:09;;;;;;;;;;;;;;;-0.06;nan;101405.94;5038359;28;19924;-29
2022/11/19 03:44:49;;;;;;;;;;;;;;;-0.08;nan;101403.47;5036754;28;20169;-29
2022/11/19 03:47:17;;;;;;;;;;;;;;;-0.09;nan;101401.81;5035259;28;19921;-29
2022/11/19 03:49:45;;;;;;;;;;;;;;;-0.07;nan;101402.47;5030106;28;19925;-29
2022/11/19 03:52:12;;;;;;;;;;;;;;;-0.06;nan;101405.94;5039259;28;19916;-29
2022/11/19 03:54:38;;;;;;;;;;;;;;;-0.06;nan;101411.19;5034283;28;19932;-29
2022/11/19 03:57:05;;;;;;;;;;;;;;;-0.07;nan;101406.91;5041596;28;19924;-29
2022/11/19 03:59:30;;;;;;;;;;;;;;;-0.08;nan;101408.72;5045276;22;19975;-32
2022/11/19 04:02:00;;;;;;;;;;;;;;;-0.08;nan;101410.53;4982279;28;19929;-32
2022/11/19 04:04:35;;;;;;;;;;;;;;;-0.09;nan;101417.63;4983576;28;19922;-32
2022/11/19 04:07:01;;;;;;;;;;;;;;;-0.08;nan;101406.09;4982766;28;19925;-32
2022/11/19 04:09:26;;;;;;;;;;;;;;;-0.04;nan;101409.22;4981678;28;20338;-32
2022/11/19 04:11:52;;;;;;;;;;;;;;;-0.01;nan;101393.91;4983337;28;20386;-32
2022/11/19 04:14:17;;;;;;;;;;;;;;;0.02;nan;101392.78;4985290;28;20582;-32
2022/11/19 04:16:42;;;;;;;;;;;;;;;0.06;nan;101391.47;4986777;28;20360;-32
2022/11/19 04:19:08;;;;;;;;;;;;;;;0.11;nan;101402.31;4987468;28;20355;-32
2022/11/19 04:21:33;;;;;;;;;;;;;;;0.16;nan;101399.19;4984245;28;19968;-32
2022/11/19 04:23:58;;;;;;;;;;;;;;;0.20;nan;101405.81;4985633;28;20394;-32
2022/11/19 04:26:24;;;;;;;;;;;;;;;0.23;nan;101390.50;4989320;28;19918;-32
2022/11/19 04:28:49;;;;;;;;;;;;;;;0.27;nan;101385.69;4983984;28;20102;-32
2022/11/19 04:31:15;;;;;;;;;;;;;;;0.34;nan;101388.50;4988842;28;20004;-32
2022/11/19 04:33:40;;;;;;;;;;;;;;;0.36;nan;101379.44;4985992;28;20012;-32
2022/11/19 04:36:05;;;;;;;;;;;;;;;0.42;nan;101393.78;4986856;28;19922;-32
2022/11/19 04:38:31;;;;;;;;;;;;;;;0.45;nan;101393.44;4987168;28;19922;-32
2022/11/19 04:40:56;;;;;;;;;;;;;;;0.50;nan;101377.94;4988472;28;19917;-32
2022/11/19 04:43:21;;;;;;;;;;;;;;;0.56;nan;101377.28;4985894;28;20217;-32
2022/11/19 04:45:47;;;;;;;;;;;;;;;0.63;nan;101374.78;4987384;28;19929;-32
2022/11/19 04:48:12;;;;;;;;;;;;;;;0.69;nan;101384.66;4989125;28;20101;-32
2022/11/19 04:50:37;;;;;;;;;;;;;;;0.73;nan;101380.72;4985637;28;20162;-32
2022/11/19 04:53:03;;;;;;;;;;;;;;;0.77;nan;101377.56;4986613;28;19922;-32
2022/11/19 04:55:28;;;;;;;;;;;;;;;0.81;nan;101381.50;4986217;28;19938;-32
2022/11/19 04:57:53;;;;;;;;;;;;;;;0.85;nan;101374.91;4985693;28;19917;-32
2022/11/19 05:00:19;;;;;;;;;;;;;;;0.88;nan;101379.84;4986828;28;19932;-32
2022/11/19 05:02:44;;;;;;;;;;;;;;;0.92;nan;101379.53;4989411;28;19929;-32
2022/11/19 05:05:10;;;;;;;;;;;;;;;0.96;nan;101375.53;4987889;28;20391;-32
2022/11/19 05:07:35;;;;;;;;;;;;;;;0.97;nan;101371.91;4986652;28;20403;-32
2022/11/19 05:10:01;;;;;;;;;;;;;;;1.01;nan;101375.84;4986308;28;19926;-32
2022/11/19 05:12:26;;;;;;;;;;;;;;;1.02;nan;101370.41;4988361;28;19940;-32
2022/11/19 05:14:51;;;;;;;;;;;;;;;1.02;nan;101361.66;4985910;28;19932;-32
2022/11/19 05:17:17;;;;;;;;;;;;;;;1.04;nan;101357.03;4989409;28;20056;-32
2022/11/19 05:19:42;;;;;;;;;;;;;;;1.02;nan;101349.28;4985422;28;19933;-32
2022/11/19 05:22:07;;;;;;;;;;;;;;;1.03;nan;101339.56;4986911;28;19917;-32
2022/11/19 05:24:33;;;;;;;;;;;;;;;1.04;nan;101346.47;4988052;28;19922;-32
2022/11/19 05:26:58;;;;;;;;;;;;;;;1.06;nan;101337.38;4984993;28;20368;-32
2022/11/19 05:29:23;;;;;;;;;;;;;;;1.10;nan;101337.91;4986106;28;20404;-32
2022/11/19 05:31:49;;;;;;;;;;;;;;;1.17;nan;101338.84;4985327;28;20000;-32
2022/11/19 05:34:14;;;;;;;;;;;;;;;1.23;nan;101330.22;4985681;28;20185;-33
2022/11/19 05:36:39;;;;;;;;;;;;;;;1.27;nan;101333.38;4987019;28;20147;-32
2022/11/19 05:39:05;;;;;;;;;;;;;;;1.31;nan;101327.56;4989640;28;19921;-32
2022/11/19 05:41:30;;;;;;;;;;;;;;;1.35;nan;101323.56;4986060;28;19917;-30
2022/11/19 05:43:55;;;;;;;;;;;;;;;1.41;nan;101325.50;4986380;28;20454;-30
2022/11/19 05:46:21;;;;;;;;;;;;;;;1.45;nan;101316.25;4987516;28;20312;-30
2022/11/19 05:48:46;;;;;;;;;;;;;;;1.52;nan;101316.38;4987659;28;20422;-30
2022/11/19 05:51:15;;;;;;;;;;;;;;;1.61;nan;101311.84;4984712;28;19925;-30
2022/11/19 05:53:40;;;;;;;;;;;;;;;1.68;nan;101316.28;4983066;28;19944;-30
2022/11/19 05:56:06;;;;;;;;;;;;;;;1.73;nan;101316.56;4986142;28;20008;-30
2022/11/19 05:58:31;;;;;;;;;;;;;;;1.78;nan;101308.09;4986031;28;20020;-30
2022/11/19 06:00:57;;;;;;;;;;;;;;;1.87;nan;101311.50;4984955;28;19921;-30
2022/11/19 06:03:23;;;;;;;;;;;;;;;1.96;nan;101299.88;4985646;28;19944;-30
2022/11/19 06:05:48;;;;;;;;;;;;;;;2.03;nan;101308.75;4984365;28;20744;-30
2022/11/19 06:08:13;;;;;;;;;;;;;;;2.06;nan;101303.91;4984616;28;20425;-30
2022/11/19 06:10:39;;;;;;;;;;;;;;;2.14;nan;101289.78;4987014;28;20363;-30
2022/11/19 06:13:04;;;;;;;;;;;;;;;2.21;nan;101297.84;4985266;28;20399;-30
2022/11/19 06:15:29;;;;;;;;;;;;;;;2.29;nan;101295.09;4982291;28;20393;-30
2022/11/19 06:17:55;;;;;;;;;;;;;;;2.34;nan;101293.59;4987646;28;20561;-30
2022/11/19 06:20:20;;;;;;;;;;;;;;;2.38;nan;101296.69;4984758;28;20388;-30
2022/11/19 06:22:45;;;;;;;;;;;;;;;2.40;nan;101292.84;4984218;28;20085;-30
2022/11/19 06:25:11;;;;;;;;;;;;;;;2.40;nan;101294.69;4985329;28;19953;-30
2022/11/19 06:27:36;;;;;;;;;;;;;;;2.40;nan;101295.50;4982853;28;19918;-30
2022/11/19 06:30:02;;;;;;;;;;;;;;;2.43;nan;101295.13;4984475;28;19922;-30
2022/11/19 06:32:27;;;;;;;;;;;;;;;2.45;nan;101297.59;4983887;28;19976;-30
2022/11/19 06:34:53;;;;;;;;;;;;;;;2.48;nan;101294.56;4986174;28;19939;-30
2022/11/19 06:37:18;;;;;;;;;;;;;;;2.60;nan;101303.72;4984838;28;20004;-30
2022/11/19 06:39:43;;;;;;;;;;;;;;;2.65;nan;101298.69;4984233;28;20652;-30
2022/11/19 06:44:53;;;;;;;;;;;;;;;2.87;nan;101298.75;4984076;28;20374;-30
2022/11/19 06:47:18;;;;;;;;;;;;;;;2.94;nan;101292.56;4985256;28;19921;-30
2022/11/19 06:49:43;;;;;;;;;;;;;;;3.01;nan;101287.34;4983467;28;20079;-30
2022/11/19 06:52:08;;;;;;;;;;;;;;;3.06;nan;101284.97;4985383;28;19960;-30
2022/11/19 06:54:34;;;;;;;;;;;;;;;3.11;nan;101281.78;4985888;28;19944;-30
2022/11/19 06:56:59;;;;;;;;;;;;;;;3.20;nan;101272.69;4980328;28;19929;-30
2022/11/19 06:59:25;;;;;;;;;;;;;;;3.27;nan;101276.25;4984922;28;20180;-30
2022/11/19 07:01:50;;;;;;;;;;;;;;;3.32;nan;101277.34;4984279;28;20261;-30
2022/11/19 07:04:16;;;;;;;;;;;;;;;3.40;nan;101272.91;4986730;28;19925;-30
2022/11/19 07:06:42;;;;;;;;;;;;;;;3.48;nan;101270.16;4988848;28;19992;-30
2022/11/19 07:09:07;;;;;;;;;;;;;;;3.56;nan;101264.72;4981101;28;19957;-30
2022/11/19 07:11:34;;;;;;;;;;;;;;;3.59;nan;101257.25;4982661;28;20290;-30
2022/11/19 07:14:01;;;;;;;;;;;;;;;3.61;nan;101255.22;4982137;28;19917;-30
2022/11/19 07:16:32;;;;;;;;;;;;;;;3.68;nan;101247.31;4982490;28;20016;-30
2022/11/19 07:18:58;;;;;;;;;;;;;;;3.75;nan;101245.53;4984704;28;19914;-30
2022/11/19 07:21:24;;;;;;;;;;;;;;;3.85;nan;101243.38;4986489;28;19921;-30
2022/11/19 07:23:49;;;;;;;;;;;;;;;3.88;nan;101240.34;4981946;28;19918;-30
2022/11/19 07:26:14;;;;;;;;;;;;;;;3.95;nan;101240.41;4982955;28;19924;-30
2022/11/19 07:28:40;;;;;;;;;;;;;;;3.99;nan;101239.00;4985752;28;19917;-30
2022/11/19 07:31:06;;;;;;;;;;;;;;;4.09;nan;101230.69;4983964;28;19922;-30
2022/11/19 07:33:32;;;;;;;;;;;;;;;4.12;nan;101225.81;4984813;28;19926;-30
2022/11/19 07:35:57;;;;;;;;;;;;;;;4.18;nan;101233.03;4982247;28;19986;-30
2022/11/19 07:38:23;;;;;;;;;;;;;;;4.20;nan;101222.22;4984425;28;19933;-30
2022/11/19 07:40:55;;;;;;;;;;;;;;;4.24;nan;101231.41;4982252;28;19918;-30
2022/11/19 07:43:20;;;;;;;;;;;;;;;4.32;nan;101219.84;4981504;28;19922;-30
2022/11/19 07:45:46;;;;;;;;;;;;;;;4.36;nan;101226.41;4981342;28;19925;-30
2022/11/19 07:48:11;;;;;;;;;;;;;;;4.40;nan;101220.50;4979672;28;20118;-30
2022/11/19 07:50:37;;;;;;;;;;;;;;;4.45;nan;101220.72;4982134;28;19925;-30
2022/11/19 07:53:03;;;;;;;;;;;;;;;4.48;nan;101215.03;4982480;28;19921;-31
2022/11/19 07:55:28;;;;;;;;;;;;;;;4.51;nan;101214.66;4981633;28;19929;-31
2022/11/19 07:57:53;;;;;;;;;;;;;;;4.47;nan;101208.06;4982943;28;19960;-31
2022/11/19 08:00:19;;;;;;;;;;;;;;;4.51;nan;101208.53;4978914;28;19925;-30
2022/11/19 08:02:44;;;;;;;;;;;;;;;4.54;nan;101208.13;4985766;28;20070;-30
2022/11/19 08:05:09;;;;;;;;;;;;;;;4.61;nan;101208.16;4983405;28;19932;-30
2022/11/19 08:07:38;;;;;;;;;;;;;;;4.67;nan;101202.03;4982482;28;20417;-30
2022/11/19 08:10:05;;;;;;;;;;;;;;;4.70;nan;101196.34;4979364;28;20293;-30
2022/11/19 08:12:31;;;;;;;;;;;;;;;4.82;nan;101197.41;4980510;28;19918;-31
2022/11/19 08:14:56;;;;;;;;;;;;;;;4.87;nan;101197.66;4974536;28;19922;-30
2022/11/19 08:20:06;;;;;;;;;;;;;;;4.95;nan;101189.50;4978815;28;21142;-30
2022/11/19 08:22:32;;;;;;;;;;;;;;;5.00;nan;101189.69;4982015;28;19925;-30
2022/11/19 08:24:57;;;;;;;;;;;;;;;5.06;nan;101180.13;4978988;28;20394;-30
2022/11/19 08:27:22;;;;;;;;;;;;;;;5.06;nan;101174.81;4980178;28;19929;-30
2022/11/19 08:29:48;;;;;;;;;;;;;;;5.06;nan;101178.28;4977320;28;19929;-30
2022/11/19 08:32:13;;;;;;;;;;;;;;;5.08;nan;101178.91;4974171;28;19924;-30
2022/11/19 08:34:38;;;;;;;;;;;;;;;5.14;nan;101175.44;4979582;28;19922;-30
2022/11/19 08:37:04;;;;;;;;;;;;;;;5.19;nan;101190.75;4984286;28;20346;-31
2022/11/19 08:39:30;;;;;;;;;;;;;;;5.25;nan;101174.03;4972166;28;19929;-30
2022/11/19 08:44:39;;;;;;;;;;;;;;;5.29;nan;101177.91;4980955;28;19957;-30
2022/11/19 08:47:05;;;;;;;;;;;;;;;5.29;nan;101164.63;4984595;28;20392;-30
2022/11/19 08:49:30;;;;;;;;;;;;;;;5.33;nan;101173.00;4981219;28;19928;-30
2022/11/19 08:51:56;;;;;;;;;;;;;;;5.37;nan;101167.06;4980242;28;19917;-30
2022/11/19 08:54:21;;;;;;;;;;;;;;;5.44;nan;101157.28;4981447;28;19944;-30
2022/11/19 08:56:47;;;;;;;;;;;;;;;5.41;nan;101154.22;4980830;28;20462;-30
2022/11/19 08:59:12;;;;;;;;;;;;;;;5.44;nan;101161.78;4982509;28;19928;-31
2022/11/19 09:01:38;;;;;;;;;;;;;;;5.46;nan;101149.94;4987463;28;19925;-30
2022/11/19 09:04:03;;;;;;;;;;;;;;;5.54;nan;101151.53;4985451;28;20121;-30
2022/11/19 09:06:28;;;;;;;;;;;;;;;5.60;nan;101150.75;4987793;28;19952;-30
2022/11/19 09:08:54;;;;;;;;;;;;;;;5.60;nan;101147.28;4985356;28;20368;-30
2022/11/19 09:11:20;;;;;;;;;;;;;;;5.67;nan;101148.88;4986860;28;19926;-30
2022/11/19 09:13:46;;;;;;;;;;;;;;;5.66;nan;101152.56;4984370;28;19964;-30
2022/11/19 09:16:11;;;;;;;;;;;;;;;5.75;nan;101151.34;4984644;28;19949;-30
2022/11/19 09:18:38;;;;;;;;;;;;;;;5.72;nan;101142.94;4983878;28;20095;-30
2022/11/19 09:21:05;;;;;;;;;;;;;;;5.78;nan;101143.97;4988211;28;19964;-31
2022/11/19 09:23:30;;;;;;;;;;;;;;;5.86;nan;101144.56;4986168;28;20122;-30
2022/11/19 09:25:57;;;;;;;;;;;;;;;5.91;nan;101149.28;4987383;28;19917;-30
2022/11/19 09:28:22;;;;;;;;;;;;;;;5.95;nan;101145.22;4982023;28;20368;-31
2022/11/19 09:30:58;;;;;;;;;;;;;;;5.99;nan;101144.59;4985254;28;19953;-30
2022/11/19 09:33:24;;;;;;;;;;;;;;;6.06;nan;101133.91;4983725;28;19928;-30
2022/11/19 09:35:49;;;;;;;;;;;;;;;6.05;nan;101140.25;4988864;28;19922;-31
2022/11/19 09:38:14;;;;;;;;;;;;;;;6.07;nan;101133.72;4985152;28;19921;-30
2022/11/19 09:40:43;;;;;;;;;;;;;;;6.09;nan;101138.81;4988459;28;19961;-30
2022/11/19 09:43:11;;;;;;;;;;;;;;;6.15;nan;101131.88;4986842;28;19932;-30
2022/11/19 09:45:37;;;;;;;;;;;;;;;6.19;nan;101130.41;4983282;28;19922;-30
2022/11/19 09:48:17;;;;;;;;;;;;;;;6.24;nan;101131.41;4988451;28;19917;-30
2022/11/19 09:50:49;;;;;;;;;;;;;;;6.28;nan;101127.31;4982715;28;19974;-30
2022/11/19 09:53:17;;;;;;;;;;;;;;;6.27;nan;101117.69;4979853;28;19945;-30
2022/11/19 09:55:44;;;;;;;;;;;;;;;6.30;nan;101114.63;4984102;28;19929;-30
2022/11/19 09:58:30;;;;;;;;;;;;;;;6.35;nan;101117.47;4985014;28;20303;-30
2022/11/19 10:00:56;;;;;;;;;;;;;;;6.34;nan;101113.16;4980813;28;19922;-31
2022/11/19 10:03:23;;;;;;;;;;;;;;;6.34;nan;101115.81;4982936;28;20319;-30
2022/11/19 10:05:54;;;;;;;;;;;;;;;6.38;nan;101123.38;4983963;28;19926;-30
2022/11/19 10:08:28;;;;;;;;;;;;;;;6.40;nan;101114.16;4979463;28;19925;-30
2022/11/19 10:10:53;;;;;;;;;;;;;;;6.41;nan;101107.81;4985274;28;19918;-30
2022/11/19 10:13:30;;;;;;;;;;;;;;;6.45;nan;101114.31;4983950;28;19918;-30
2022/11/19 10:16:01;;;;;;;;;;;;;;;6.49;nan;101109.41;4985522;28;20284;-31
2022/11/19 10:18:45;;;;;;;;;;;;;;;6.52;nan;101111.66;4983306;28;19921;-31
2022/11/19 10:21:17;;;;;;;;;;;;;;;6.59;nan;101107.91;4986509;28;19972;-31
2022/11/19 10:23:48;;;;;;;;;;;;;;;6.58;nan;101100.97;4982907;28;19926;-30
2022/11/19 10:26:15;;;;;;;;;;;;;;;6.61;nan;101102.38;4991049;28;19917;-31
2022/11/19 10:28:44;;;;;;;;;;;;;;;6.68;nan;101095.19;4988926;28;20158;-31
2022/11/19 10:31:15;;;;;;;;;;;;;;;6.68;nan;101095.19;4986177;28;19957;-31
2022/11/19 10:33:50;;;;;;;;;;;;;;;6.71;nan;101091.28;4986418;28;19967;-31
2022/11/19 10:36:22;;;;;;;;;;;;;;;6.76;nan;101081.59;4983757;28;19918;-30
2022/11/19 10:39:02;;;;;;;;;;;;;;;6.79;nan;101083.03;4983332;28;21170;-30
2022/11/19 10:41:28;;;;;;;;;;;;;;;6.81;nan;101087.09;4986609;28;19968;-31
2022/11/19 10:44:04;;;;;;;;;;;;;;;6.84;nan;101084.03;4983176;28;20383;-30
2022/11/19 10:46:30;;;;;;;;;;;;;;;6.80;nan;101085.47;4986521;28;20283;-31
2022/11/19 10:48:57;;;;;;;;;;;;;;;6.80;nan;101082.81;4985481;28;19929;-31
2022/11/19 10:51:29;;;;;;;;;;;;;;;6.89;nan;101075.38;4980881;28;20328;-30
2022/11/19 10:53:56;;;;;;;;;;;;;;;6.93;nan;101072.06;4987095;28;19929;-30
2022/11/19 10:56:23;;;;;;;;;;;;;;;6.98;nan;101074.88;4984736;28;19919;-31
2022/11/19 10:58:54;;;;;;;;;;;;;;;7.06;nan;101067.69;4987179;28;19964;-30
2022/11/19 11:01:33;;;;;;;;;;;;;;;7.09;nan;101073.38;4984131;28;19925;-31
2022/11/19 11:04:17;;;;;;;;;;;;;;;7.13;nan;101066.59;4984893;28;20471;-30
2022/11/19 11:06:53;;;;;;;;;;;;;;;7.22;nan;101069.81;4985125;28;19933;-31
2022/11/19 11:09:30;;;;;;;;;;;;;;;7.23;nan;101071.44;4984615;28;19922;-31
2022/11/19 11:14:51;;;;;;;;;;;;;;;7.26;nan;101061.16;4985193;28;19929;-31
2022/11/19 11:17:24;;;;;;;;;;;;;;;7.33;nan;101063.75;4985793;28;19941;-30
2022/11/19 11:19:56;;;;;;;;;;;;;;;7.31;nan;101063.16;4982486;28;19917;-31
2022/11/19 11:22:22;;;;;;;;;;;;;;;7.31;nan;101062.34;4986553;28;20292;-30
2022/11/19 11:24:47;;;;;;;;;;;;;;;7.40;nan;101058.38;4983232;28;19922;-31
2022/11/19 11:27:25;;;;;;;;;;;;;;;7.42;nan;101056.31;4985687;28;20037;-30
2022/11/19 11:30:03;;;;;;;;;;;;;;;7.44;nan;101063.03;4986508;28;19918;-31
2022/11/19 11:32:30;;;;;;;;;;;;;;;7.49;nan;101060.53;4982533;28;19926;-31
2022/11/19 11:34:55;;;;;;;;;;;;;;;7.53;nan;101060.91;4983009;28;20367;-30
2022/11/19 11:37:21;;;;;;;;;;;;;;;7.57;nan;101049.59;4985644;28;19918;-31
2022/11/19 11:39:53;;;;;;;;;;;;;;;7.65;nan;101050.31;4982655;28;19929;-31
2022/11/19 11:42:19;;;;;;;;;;;;;;;7.75;nan;101048.78;4982386;28;19917;-31
2022/11/19 11:45:02;;;;;;;;;;;;;;;7.80;nan;101045.44;4984670;28;20454;-31
2022/11/19 11:47:29;;;;;;;;;;;;;;;7.85;nan;101048.25;4983706;28;19971;-31
2022/11/19 11:50:05;;;;;;;;;;;;;;;7.88;nan;101042.47;4984908;28;20319;-31
2022/11/19 11:52:42;;;;;;;;;;;;;;;7.97;nan;101045.66;4985010;28;20330;-31
2022/11/19 11:55:13;;;;;;;;;;;;;;;7.98;nan;101048.09;4986812;28;20466;-31
2022/11/19 11:57:57;;;;;;;;;;;;;;;7.98;nan;101045.44;4987170;28;20351;-31
2022/11/19 12:00:38;;;;;;;;;;;;;;;8.00;nan;101040.69;4980158;28;19922;-31
2022/11/19 12:03:03;;;;;;;;;;;;;;;8.08;nan;101044.94;4981486;28;19918;-31
2022/11/19 12:05:34;;;;;;;;;;;;;;;8.13;nan;101043.22;4985140;28;19921;-31
2022/11/19 12:08:02;;;;;;;;;;;;;;;8.14;nan;101036.81;4985187;28;19925;-31
2022/11/19 12:10:34;;;;;;;;;;;;;;;8.08;nan;101029.72;4986202;28;20399;-31
2022/11/19 12:13:08;;;;;;;;;;;;;;;8.15;nan;101041.13;4983431;28;19925;-31
2022/11/19 12:15:57;;;;;;;;;;;;;;;8.14;nan;101041.34;4984219;28;19918;-31
2022/11/19 12:18:29;;;;;;;;;;;;;;;8.13;nan;101037.06;4981348;28;19949;-31
2022/11/19 12:21:07;;;;;;;;;;;;;;;8.19;nan;101034.28;4985085;28;20471;-31
2022/11/19 12:23:38;;;;;;;;;;;;;;;8.22;nan;101034.88;4984483;28;19932;-31
2022/11/19 12:26:15;;;;;;;;;;;;;;;8.21;nan;101035.91;4985666;28;19918;-31
2022/11/19 12:28:55;;;;;;;;;;;;;;;8.20;nan;101035.09;4980923;28;19918;-31
2022/11/19 12:31:33;;;;;;;;;;;;;;;8.19;nan;101038.81;4984509;28;19976;-31
2022/11/19 12:34:11;;;;;;;;;;;;;;;8.23;nan;101039.19;4986031;28;20408;-31
2022/11/19 12:36:36;;;;;;;;;;;;;;;8.29;nan;101027.63;4989970;28;19987;-31
2022/11/19 12:39:06;;;;;;;;;;;;;;;8.30;nan;101030.06;4986879;28;19968;-32
2022/11/19 12:42:03;;;;;;;;;;;;;;;8.33;nan;101028.78;4987361;28;19917;-32
2022/11/19 12:44:44;;;;;;;;;;;;;;;8.37;nan;101030.00;4976458;28;19929;-32
2022/11/19 12:47:32;;;;;;;;;;;;;;;8.30;nan;101029.25;4989768;28;19924;-32
2022/11/19 12:50:10;;;;;;;;;;;;;;;8.33;nan;101024.25;4951343;28;20435;-32
2022/11/19 12:52:57;;;;;;;;;;;;;;;8.38;nan;101031.63;4989856;28;19948;-32
2022/11/19 12:55:23;;;;;;;;;;;;;;;8.33;nan;101023.44;4980184;28;19979;-32
2022/11/19 12:58:24;;;;;;;;;;;;;;;8.33;nan;101018.91;4984665;28;20374;-32
2022/11/19 13:00:53;;;;;;;;;;;;;;;8.34;nan;101025.09;4916470;29;20051;-32
2022/11/19 13:03:31;;;;;;;;;;;;;;;8.38;nan;101037.78;4974331;28;19918;-32
2022/11/19 13:05:58;;;;;;;;;;;;;;;8.38;nan;101037.78;4986895;28;19918;-32
2022/11/19 13:08:33;;;;;;;;;;;;;;;8.37;nan;101033.47;4986964;28;19918;-32
2022/11/19 13:11:04;;;;;;;;;;;;;;;8.33;nan;101034.94;4986046;28;20376;-32
2022/11/19 13:13:31;;;;;;;;;;;;;;;8.29;nan;101035.63;4987806;28;19922;-32
2022/11/19 13:16:05;;;;;;;;;;;;;;;8.23;nan;101026.63;4985631;28;19987;-32
2022/11/19 13:18:33;;;;;;;;;;;;;;;8.22;nan;101027.69;4986588;28;20012;-32
2022/11/19 13:21:04;;;;;;;;;;;;;;;8.23;nan;101023.16;4987736;28;20503;-32
2022/11/19 13:23:37;;;;;;;;;;;;;;;8.27;nan;101025.19;4988074;28;19932;-32
2022/11/19 13:26:10;;;;;;;;;;;;;;;8.30;nan;101021.22;4989217;28;20375;-31
2022/11/19 13:28:38;;;;;;;;;;;;;;;8.29;nan;101023.09;4986836;28;20334;-32
2022/11/19 13:31:22;;;;;;;;;;;;;;;8.32;nan;101021.81;4987122;28;19922;-32
2022/11/19 13:33:51;;;;;;;;;;;;;;;8.36;nan;101028.34;4986441;28;20001;-31
2022/11/19 13:36:21;;;;;;;;;;;;;;;8.33;nan;101026.94;4984230;28;20043;-32
2022/11/19 13:38:49;;;;;;;;;;;;;;;8.35;nan;101024.06;4984818;28;19918;-31
2022/11/19 13:44:37;;;;;;;;;;;;;;;8.29;nan;101022.28;4988609;28;19921;-31
2022/11/19 13:44:40;;;;;;;;;;;;;;;8.27;nan;101024.38;4984523;28;20360;-31
2022/11/19 13:47:22;;;;;;;;;;;;;;;8.25;nan;101024.56;4987046;28;19926;-31
2022/11/19 13:49:54;;;;;;;;;;;;;;;8.27;nan;101021.69;4987781;28;19922;-31
2022/11/19 13:52:32;;;;;;;;;;;;;;;8.25;nan;101029.09;4990345;28;19941;-31
2022/11/19 13:54:58;;;;;;;;;;;;;;;8.23;nan;101034.66;4989688;28;19921;-31
2022/11/19 13:57:41;;;;;;;;;;;;;;;8.22;nan;101027.69;4988553;28;19917;-31
2022/11/19 14:00:19;;;;;;;;;;;;;;;8.25;nan;101029.09;4982389;28;19952;-31
2022/11/19 14:02:45;;;;;;;;;;;;;;;8.26;nan;101044.06;4984873;28;19926;-31
2022/11/19 14:05:28;;;;;;;;;;;;;;;8.26;nan;101041.38;4983351;28;19937;-31
2022/11/19 14:08:05;;;;;;;;;;;;;;;8.25;nan;101039.75;4981443;28;19924;-32
2022/11/19 14:10:35;;;;;;;;;;;;;;;8.22;nan;101046.38;4986062;28;20260;-31
2022/11/19 14:13:06;;;;;;;;;;;;;;;8.22;nan;101026.88;4983948;28;20028;-31
2022/11/19 14:27:24;;;;;;;;;;;;;;;8.34;nan;101043.78;4987175;28;19929;-31
2022/11/19 14:29:55;;;;;;;;;;;;;;;8.34;nan;101035.78;4982843;28;20012;-31